createdAt,value
2018-05-11T00:00:46.381Z,18.83
2018-05-11T00:03:19.535Z,9.80
2018-05-11T00:05:52.210Z,10.33
2018-05-11T00:08:24.605Z,12.07
2018-05-11T00:10:56.977Z,8.90
2018-05-11T00:13:30.934Z,11.83
2018-05-11T00:16:03.734Z,8.90
2018-05-11T00:18:36.342Z,7.90
2018-05-11T00:21:09.637Z,7.30
2018-05-11T00:23:42.277Z,12.40
2018-05-11T00:26:14.634Z,14.50
2018-05-11T00:28:47.106Z,8.53
2018-05-11T00:31:19.581Z,11.67
2018-05-11T00:33:51.930Z,8.60
2018-05-11T00:36:24.526Z,10.43
2018-05-11T00:38:57.046Z,8.70
2018-05-11T00:41:30.293Z,11.63
2018-05-11T00:44:02.714Z,10.90
2018-05-11T00:46:35.280Z,10.23
2018-05-11T00:49:08.657Z,11.20
2018-05-11T00:51:41.281Z,10.10
2018-05-11T00:54:13.674Z,12.67
2018-05-11T00:56:46.062Z,9.60
2018-05-11T00:59:18.562Z,13.00
2018-05-11T01:01:50.974Z,12.23
2018-05-11T01:04:23.492Z,7.87
2018-05-11T01:06:56.581Z,10.13
2018-05-11T01:09:29.722Z,10.70
2018-05-11T01:12:02.339Z,8.47
2018-05-11T01:14:35.203Z,10.03
2018-05-11T01:17:07.811Z,12.77
2018-05-11T01:19:40.241Z,11.33
2018-05-11T01:22:12.691Z,8.80
2018-05-11T01:24:45.833Z,12.43
2018-05-11T01:27:18.442Z,11.43
2018-05-11T01:29:51.077Z,12.63
2018-05-11T01:32:23.522Z,13.27
2018-05-11T01:34:55.954Z,12.87
2018-05-11T01:37:28.404Z,13.10
2018-05-11T01:40:01.734Z,16.10
2018-05-11T01:42:35.042Z,11.33
2018-05-11T01:45:08.213Z,9.07
2018-05-11T01:47:40.610Z,15.20
2018-05-11T01:50:13.834Z,9.40
2018-05-11T01:52:46.161Z,11.90
2018-05-11T01:55:19.575Z,12.30
2018-05-11T01:57:52.125Z,12.07
2018-05-11T02:00:24.750Z,11.57
2018-05-11T02:02:57.866Z,11.30
2018-05-11T02:05:30.333Z,10.73
2018-05-11T02:08:03.003Z,15.10
2018-05-11T02:10:36.262Z,11.57
2018-05-11T02:13:09.659Z,10.37
2018-05-11T02:15:42.288Z,12.63
2018-05-11T02:18:15.621Z,10.40
2018-05-11T02:20:48.006Z,16.07
2018-05-11T02:23:20.489Z,13.87
2018-05-11T02:25:53.172Z,11.20
2018-05-11T02:28:25.706Z,9.90
2018-05-11T02:30:59.102Z,11.83
2018-05-11T02:33:32.245Z,12.60
2018-05-11T02:36:04.759Z,10.90
2018-05-11T02:38:37.358Z,10.10
2018-05-11T02:41:09.886Z,8.40
2018-05-11T02:43:42.568Z,13.20
2018-05-11T02:46:15.037Z,12.17
2018-05-11T02:48:47.695Z,9.83
2018-05-11T02:51:20.043Z,12.70
2018-05-11T02:53:52.519Z,11.53
2018-05-11T02:56:25.666Z,10.77
2018-05-11T02:58:58.057Z,14.57
2018-05-11T03:01:32.513Z,13.00
2018-05-11T03:04:05.065Z,13.90
2018-05-11T03:06:37.453Z,11.43
2018-05-11T03:09:09.834Z,9.53
2018-05-11T03:11:42.255Z,12.53
2018-05-11T03:14:15.553Z,11.97
2018-05-11T03:16:47.993Z,8.10
2018-05-11T03:19:20.510Z,10.43
2018-05-11T03:21:52.912Z,8.80
2018-05-11T03:24:25.306Z,8.83
2018-05-11T03:26:57.798Z,7.17
2018-05-11T03:29:30.369Z,9.07
2018-05-11T03:32:02.881Z,9.70
2018-05-11T03:34:36.461Z,10.60
2018-05-11T03:37:08.784Z,12.10
2018-05-11T03:39:41.328Z,7.37
2018-05-11T03:42:13.833Z,8.77
2018-05-11T03:44:46.942Z,8.70
2018-05-11T03:47:19.378Z,9.27
2018-05-11T03:49:52.785Z,8.83
2018-05-11T03:52:25.193Z,10.60
2018-05-11T03:54:57.665Z,12.50
2018-05-11T03:57:30.297Z,11.00
2018-05-11T04:00:03.807Z,11.03
2018-05-11T04:02:48.546Z,8.70
2018-05-11T04:05:33.361Z,8.00
2018-05-11T04:08:18.036Z,8.27
2018-05-11T04:10:50.472Z,8.03
2018-05-11T04:13:22.970Z,14.50
2018-05-11T04:15:55.613Z,12.20
2018-05-11T04:18:28.030Z,14.67
2018-05-11T04:21:00.408Z,13.83
2018-05-11T04:23:32.889Z,13.50
2018-05-11T04:26:05.629Z,10.53
2018-05-11T04:28:38.974Z,12.07
2018-05-11T04:31:12.627Z,12.90
2018-05-11T04:33:45.210Z,9.60
2018-05-11T04:36:19.385Z,11.23
2018-05-11T04:38:51.990Z,10.37
2018-05-11T04:41:25.096Z,12.20
2018-05-11T04:43:57.535Z,9.43
2018-05-11T04:46:30.105Z,11.37
2018-05-11T04:49:02.479Z,10.50
2018-05-11T04:51:36.239Z,13.37
2018-05-11T04:54:08.740Z,13.27
2018-05-11T04:56:41.090Z,17.00
2018-05-11T04:59:13.728Z,13.03
2018-05-11T05:01:46.349Z,12.77
2018-05-11T05:04:18.882Z,13.27
2018-05-11T05:06:51.232Z,11.20
2018-05-11T05:09:23.649Z,10.37
2018-05-11T05:11:57.010Z,11.77
2018-05-11T05:14:29.577Z,11.63
2018-05-11T05:17:01.985Z,13.97
2018-05-11T05:19:34.409Z,12.53
2018-05-11T05:22:06.771Z,19.43
2018-05-11T05:24:39.249Z,15.97
2018-05-11T05:27:11.745Z,18.20
2018-05-11T05:29:44.209Z,15.17
2018-05-11T05:32:16.529Z,16.53
2018-05-11T05:34:50.995Z,14.77
2018-05-11T05:37:24.175Z,14.77
2018-05-11T05:39:57.561Z,13.70
2018-05-11T05:42:30.622Z,16.10
2018-05-11T05:45:03.230Z,14.70
2018-05-11T05:47:35.879Z,12.70
2018-05-11T05:50:08.273Z,14.67
2018-05-11T05:52:40.649Z,9.63
2018-05-11T05:55:15.213Z,11.07
2018-05-11T05:57:47.573Z,10.83
2018-05-11T06:00:20.099Z,14.57
2018-05-11T06:02:52.612Z,12.00
2018-05-11T06:05:26.985Z,13.60
2018-05-11T06:07:59.358Z,13.97
2018-05-11T06:10:32.768Z,12.93
2018-05-11T06:13:05.150Z,10.47
2018-05-11T06:15:37.821Z,9.97
2018-05-11T06:18:11.003Z,10.40
2018-05-11T06:20:43.362Z,11.93
2018-05-11T06:23:15.738Z,13.20
2018-05-11T06:25:48.086Z,12.50
2018-05-11T06:28:20.573Z,11.70
2018-05-11T06:30:53.091Z,11.90
2018-05-11T06:33:25.761Z,12.43
2018-05-11T06:35:58.286Z,13.03
2018-05-11T06:38:32.625Z,14.90
2018-05-11T06:41:05.098Z,11.03
2018-05-11T06:43:37.701Z,13.10
2018-05-11T06:46:10.253Z,12.60
2018-05-11T06:48:42.629Z,14.90
2018-05-11T06:51:16.020Z,31.23
2018-05-11T06:53:49.601Z,21.33
2018-05-11T06:56:22.098Z,21.57
2018-05-11T06:58:54.453Z,25.40
2018-05-11T07:01:27.870Z,31.17
2018-05-11T07:04:00.470Z,30.80
2018-05-11T07:06:33.090Z,33.20
2018-05-11T07:09:06.532Z,40.20
2018-05-11T07:11:38.939Z,40.17
2018-05-11T07:14:11.341Z,42.70
2018-05-11T07:16:43.765Z,37.30
2018-05-11T07:19:16.531Z,43.23
2018-05-11T07:21:49.181Z,38.03
2018-05-11T07:24:21.564Z,46.63
2018-05-11T07:26:54.747Z,44.63
2018-05-11T07:29:27.853Z,45.73
2018-05-11T07:32:00.226Z,41.93
2018-05-11T07:34:34.725Z,36.13
2018-05-11T07:37:07.209Z,37.47
2018-05-11T07:39:39.568Z,48.57
2018-05-11T07:42:12.649Z,37.90
2018-05-11T07:44:45.342Z,43.30
2018-05-11T07:47:18.501Z,39.90
2018-05-11T07:49:50.894Z,40.73
2018-05-11T07:52:23.245Z,40.47
2018-05-11T07:54:57.160Z,35.97
2018-05-11T07:57:29.738Z,33.30
2018-05-11T08:00:02.096Z,34.23
2018-05-11T08:02:34.529Z,35.87
2018-05-11T08:05:06.970Z,34.30
2018-05-11T08:07:40.173Z,31.77
2018-05-11T08:10:12.724Z,28.13
2018-05-11T08:12:45.098Z,31.27
2018-05-11T08:15:17.868Z,28.63
2018-05-11T08:17:50.418Z,26.60
2018-05-11T08:20:22.974Z,31.13
2018-05-11T08:22:56.048Z,25.77
2018-05-11T08:25:28.500Z,22.53
2018-05-11T08:28:00.958Z,25.63
2018-05-11T08:30:33.365Z,20.97
2018-05-11T08:33:05.758Z,26.93
2018-05-11T08:35:38.185Z,26.83
2018-05-11T08:38:16.210Z,26.60
2018-05-11T08:40:48.776Z,24.63
2018-05-11T08:43:21.177Z,28.60
2018-05-11T08:45:53.797Z,25.13
2018-05-11T08:48:27.054Z,21.70
2018-05-11T08:50:59.541Z,22.40
2018-05-11T08:53:32.969Z,25.27
2018-05-11T08:56:06.225Z,32.47
2018-05-11T08:58:39.390Z,23.70
2018-05-11T09:01:11.996Z,29.40
2018-05-11T09:03:44.402Z,25.70
2018-05-11T09:06:16.757Z,23.20
2018-05-11T09:08:49.061Z,24.00
2018-05-11T09:11:22.229Z,27.27
2018-05-11T09:13:55.417Z,24.23
2018-05-11T09:16:28.637Z,24.40
2018-05-11T09:19:01.206Z,25.17
2018-05-11T09:21:33.809Z,23.07
2018-05-11T09:24:06.217Z,21.27
2018-05-11T09:26:38.637Z,22.03
2018-05-11T09:29:11.061Z,30.90
2018-05-11T09:31:44.204Z,27.07
2018-05-11T09:34:16.623Z,22.73
2018-05-11T09:36:49.105Z,28.10
2018-05-11T09:39:21.544Z,30.43
2018-05-11T09:41:53.982Z,26.07
2018-05-11T09:44:26.371Z,24.43
2018-05-11T09:46:59.019Z,34.30
2018-05-11T09:49:31.703Z,25.60
2018-05-11T09:52:04.245Z,21.33
2018-05-11T09:54:36.805Z,27.37
2018-05-11T09:57:10.086Z,32.13
2018-05-11T09:59:42.630Z,24.33
2018-05-11T10:02:15.810Z,25.67
2018-05-11T10:04:48.950Z,24.03
2018-05-11T10:07:21.426Z,24.83
2018-05-11T10:09:53.832Z,22.93
2018-05-11T10:12:26.219Z,27.37
2018-05-11T10:14:58.595Z,25.50
2018-05-11T10:17:31.078Z,28.03
2018-05-11T10:20:03.686Z,23.07
2018-05-11T10:22:36.178Z,27.43
2018-05-11T10:25:08.697Z,30.10
2018-05-11T10:27:42.009Z,21.40
2018-05-11T10:30:15.188Z,28.70
2018-05-11T10:32:47.642Z,26.47
2018-05-11T10:35:20.140Z,27.23
2018-05-11T10:37:52.591Z,27.83
2018-05-11T10:40:24.997Z,24.80
2018-05-11T10:42:57.416Z,28.37
2018-05-11T10:45:29.802Z,29.13
2018-05-11T10:48:02.431Z,27.63
2018-05-11T10:50:35.730Z,30.00
2018-05-11T10:53:08.157Z,24.53
2018-05-11T10:55:41.309Z,23.63
2018-05-11T10:58:14.443Z,31.80
2018-05-11T11:00:47.102Z,27.60
2018-05-11T11:03:19.690Z,28.33
2018-05-11T11:05:53.034Z,24.40
2018-05-11T11:08:25.449Z,22.33
2018-05-11T11:10:57.838Z,23.27
2018-05-11T11:13:30.423Z,24.77
2018-05-11T11:16:02.834Z,20.07
2018-05-11T11:18:35.373Z,25.70
2018-05-11T11:21:07.758Z,25.07
2018-05-11T11:23:40.289Z,26.00
2018-05-11T11:26:12.904Z,25.73
2018-05-11T11:28:45.525Z,22.97
2018-05-11T11:31:17.853Z,23.47
2018-05-11T11:33:50.279Z,23.30
2018-05-11T11:36:22.840Z,22.03
2018-05-11T11:38:56.069Z,31.63
2018-05-11T11:41:29.172Z,21.70
2018-05-11T11:44:01.605Z,26.20
2018-05-11T11:46:34.187Z,23.00
2018-05-11T11:49:06.766Z,19.87
2018-05-11T11:51:39.169Z,22.50
2018-05-11T11:54:12.237Z,24.33
2018-05-11T11:56:44.666Z,23.73
2018-05-11T11:59:17.281Z,25.00
2018-05-11T12:01:49.932Z,23.80
2018-05-11T12:04:23.527Z,26.30
2018-05-11T12:06:56.024Z,25.47
2018-05-11T12:09:29.205Z,29.90
2018-05-11T12:12:02.374Z,25.97
2018-05-11T12:14:34.797Z,23.93
2018-05-11T12:17:07.194Z,23.73
2018-05-11T12:19:39.744Z,20.53
2018-05-11T12:22:12.172Z,21.03
2018-05-11T12:24:44.649Z,24.00
2018-05-11T12:27:21.109Z,25.20
2018-05-11T12:29:53.546Z,20.97
2018-05-11T12:32:25.953Z,26.30
2018-05-11T12:34:58.606Z,24.27
2018-05-11T12:37:31.054Z,22.73
2018-05-11T12:40:03.433Z,18.83
2018-05-11T12:42:35.882Z,23.70
2018-05-11T12:45:08.262Z,24.13
2018-05-11T12:47:40.677Z,23.33
2018-05-11T12:50:13.863Z,25.70
2018-05-11T12:52:46.370Z,19.37
2018-05-11T12:55:18.993Z,22.40
2018-05-11T12:57:53.437Z,22.43
2018-05-11T13:00:28.244Z,20.97
2018-05-11T13:03:01.446Z,21.27
2018-05-11T13:05:33.939Z,18.20
2018-05-11T13:08:06.649Z,18.30
2018-05-11T13:10:39.047Z,16.50
2018-05-11T13:13:12.407Z,22.10
2018-05-11T13:15:53.318Z,23.03
2018-05-11T13:18:25.890Z,19.07
2018-05-11T13:20:58.962Z,25.17
2018-05-11T13:23:31.505Z,14.67
2018-05-11T13:26:03.897Z,14.87
2018-05-11T13:28:36.349Z,15.80
2018-05-11T13:31:09.698Z,20.57
2018-05-11T13:33:42.110Z,14.60
2018-05-11T13:36:14.567Z,13.93
2018-05-11T13:38:47.076Z,19.23
2018-05-11T13:41:20.398Z,19.83
2018-05-11T13:43:53.530Z,14.00
2018-05-11T13:46:25.929Z,15.10
2018-05-11T13:48:58.409Z,14.70
2018-05-11T13:51:31.159Z,21.83
2018-05-11T13:54:03.848Z,16.50
2018-05-11T13:56:36.206Z,17.00
2018-05-11T13:59:08.726Z,18.07
2018-05-11T14:01:41.230Z,14.90
2018-05-11T14:04:14.949Z,16.10
2018-05-11T14:06:48.235Z,19.50
2018-05-11T14:09:21.452Z,22.23
2018-05-11T14:11:53.910Z,16.47
2018-05-11T14:14:26.524Z,23.43
2018-05-11T14:16:58.981Z,15.87
2018-05-11T14:19:31.582Z,19.20
2018-05-11T14:22:04.797Z,14.77
2018-05-11T14:24:37.133Z,15.33
2018-05-11T14:27:09.519Z,15.30
2018-05-11T14:29:41.882Z,17.83
2018-05-11T14:32:14.425Z,15.67
2018-05-11T14:34:46.885Z,15.53
2018-05-11T14:37:19.446Z,13.97
2018-05-11T14:39:51.945Z,18.43
2018-05-11T14:42:25.037Z,12.97
2018-05-11T14:44:57.633Z,13.17
2018-05-11T14:47:30.035Z,12.90
2018-05-11T14:50:02.431Z,13.03
2018-05-11T14:52:35.515Z,15.97
2018-05-11T14:55:08.950Z,16.90
2018-05-11T14:57:41.346Z,17.93
2018-05-11T15:00:14.529Z,15.13
2018-05-11T15:02:46.901Z,21.50
2018-05-11T15:05:19.485Z,14.20
2018-05-11T15:07:52.214Z,14.60
2018-05-11T15:10:24.761Z,14.23
2018-05-11T15:12:57.344Z,12.90
2018-05-11T15:15:30.791Z,10.77
2018-05-11T15:18:04.240Z,12.30
2018-05-11T15:20:36.806Z,14.60
2018-05-11T15:23:09.265Z,11.80
2018-05-11T15:25:41.917Z,20.23
2018-05-11T15:28:14.493Z,13.77
2018-05-11T15:30:57.105Z,15.83
2018-05-11T15:33:29.438Z,14.03
2018-05-11T15:36:01.944Z,14.73
2018-05-11T15:38:34.376Z,11.17
2018-05-11T15:41:06.754Z,14.03
2018-05-11T15:43:39.383Z,10.50
2018-05-11T15:46:12.501Z,11.77
2018-05-11T15:48:45.813Z,13.33
2018-05-11T15:51:18.337Z,12.07
2018-05-11T15:53:50.917Z,15.57
2018-05-11T15:56:23.344Z,17.33
2018-05-11T15:58:55.842Z,13.60
2018-05-11T16:01:28.441Z,13.20
2018-05-11T16:04:01.812Z,15.70
2018-05-11T16:06:34.282Z,16.27
2018-05-11T16:09:06.759Z,13.77
2018-05-11T16:11:40.158Z,11.90
2018-05-11T16:14:13.402Z,12.23
2018-05-11T16:16:45.861Z,14.23
2018-05-11T16:19:18.231Z,10.50
2018-05-11T16:21:50.720Z,18.27
2018-05-11T16:24:23.086Z,10.10
2018-05-11T16:26:56.239Z,10.90
2018-05-11T16:29:32.512Z,13.00
2018-05-11T16:32:05.005Z,11.00
2018-05-11T16:34:37.445Z,13.27
2018-05-11T16:37:09.873Z,14.93
2018-05-11T16:39:44.105Z,12.20
2018-05-11T16:42:16.665Z,10.53
2018-05-11T16:44:50.262Z,13.10
2018-05-11T16:47:26.168Z,13.23
2018-05-11T16:49:58.685Z,11.00
2018-05-11T16:52:31.145Z,12.80
2018-05-11T16:55:03.745Z,9.43
2018-05-11T16:57:36.977Z,12.83
2018-05-11T17:00:17.206Z,9.50
2018-05-11T17:02:49.698Z,14.60
2018-05-11T17:05:23.091Z,10.00
2018-05-11T17:07:56.749Z,11.27
2018-05-11T17:10:29.190Z,11.07
2018-05-11T17:13:06.113Z,9.53
2018-05-11T17:15:40.543Z,10.13
2018-05-11T17:18:14.261Z,12.67
2018-05-11T17:20:46.874Z,11.00
2018-05-11T17:23:19.573Z,12.60
2018-05-11T17:25:52.006Z,8.87
2018-05-11T17:28:32.443Z,8.67
2018-05-11T17:31:05.032Z,10.83
2018-05-11T17:33:38.757Z,8.90
2018-05-11T17:36:43.189Z,13.73
2018-05-11T17:39:27.221Z,9.53
2018-05-11T17:41:59.729Z,10.60
2018-05-11T17:44:32.219Z,12.77
2018-05-11T17:47:08.103Z,9.13
2018-05-11T17:49:40.714Z,11.73
2018-05-11T17:52:13.352Z,12.30
2018-05-11T17:54:45.833Z,10.43
2018-05-11T17:57:18.443Z,15.83
2018-05-11T17:59:51.079Z,11.10
2018-05-11T18:02:23.727Z,10.73
2018-05-11T18:05:05.568Z,13.73
2018-05-11T18:07:39.737Z,17.70
2018-05-11T18:10:12.239Z,14.07
2018-05-11T18:12:48.248Z,14.73
2018-05-11T18:15:21.962Z,14.27
2018-05-11T18:17:59.255Z,17.83
2018-05-11T18:20:45.862Z,13.80
2018-05-11T18:23:18.316Z,15.20
2018-05-11T18:25:52.993Z,12.80
2018-05-11T18:28:25.486Z,16.27
2018-05-11T18:30:58.960Z,16.00
2018-05-11T18:33:33.370Z,13.10
2018-05-11T18:36:22.847Z,12.30
2018-05-11T18:38:55.518Z,11.83
2018-05-11T18:41:28.686Z,12.30
2018-05-11T18:44:01.169Z,15.40
2018-05-11T18:46:34.514Z,15.53
2018-05-11T18:49:09.155Z,13.90
2018-05-11T18:51:41.773Z,12.00
2018-05-11T18:54:14.607Z,14.77
2018-05-11T18:56:46.932Z,13.57
2018-05-11T18:59:20.129Z,16.10
2018-05-11T19:01:53.113Z,14.57
2018-05-11T19:04:25.804Z,15.07
2018-05-11T19:07:05.566Z,14.33
2018-05-11T19:09:39.006Z,14.63
2018-05-11T19:12:12.681Z,12.87
2018-05-11T19:14:46.288Z,17.23
2018-05-11T19:17:18.640Z,11.63
2018-05-11T19:19:53.173Z,17.50
2018-05-11T19:22:25.821Z,28.67
2018-05-11T19:25:07.973Z,13.07
2018-05-11T19:27:40.415Z,15.60
2018-05-11T19:30:13.947Z,16.03
2018-05-11T19:32:46.609Z,16.60
2018-05-11T19:35:19.246Z,20.03
2018-05-11T19:37:51.929Z,13.67
2018-05-11T19:40:34.215Z,17.50
2018-05-11T19:43:16.953Z,17.77
2018-05-11T19:45:49.434Z,14.83
2018-05-11T19:48:22.003Z,16.60
2018-05-11T19:50:55.578Z,15.97
2018-05-11T19:53:28.154Z,17.90
2018-05-11T19:56:04.279Z,16.63
2018-05-11T19:58:52.670Z,17.97
2018-05-11T20:01:31.419Z,17.33
2018-05-11T20:04:09.034Z,15.70
2018-05-11T20:06:42.202Z,16.53
2018-05-11T20:09:20.430Z,16.97
2018-05-11T20:11:52.930Z,18.13
2018-05-11T20:14:26.542Z,15.77
2018-05-11T20:17:03.333Z,15.27
2018-05-11T20:19:36.734Z,15.70
2018-05-11T20:22:09.825Z,22.57
2018-05-11T20:24:42.325Z,16.03
2018-05-11T20:27:15.595Z,16.50
2018-05-11T20:29:47.993Z,17.77
2018-05-11T20:32:28.873Z,22.43
2018-05-11T20:35:04.545Z,16.70
2018-05-11T20:37:37.165Z,16.73
2018-05-11T20:40:09.984Z,16.93
2018-05-11T20:42:42.513Z,18.37
2018-05-11T20:45:15.068Z,16.63
2018-05-11T20:47:48.624Z,19.13
2018-05-11T20:50:21.162Z,21.03
2018-05-11T20:53:07.335Z,16.47
2018-05-11T20:55:40.121Z,18.63
2018-05-11T20:58:12.683Z,16.23
2018-05-11T21:00:45.210Z,18.23
2018-05-11T21:03:17.586Z,17.60
2018-05-11T21:05:50.109Z,20.43
2018-05-11T21:08:22.522Z,18.40
2018-05-11T21:10:56.638Z,19.37
2018-05-11T21:13:29.403Z,20.30
2018-05-11T21:16:02.572Z,22.50
2018-05-11T21:18:35.029Z,19.47
2018-05-11T21:21:07.596Z,20.53
2018-05-11T21:23:40.205Z,18.83
2018-05-11T21:26:12.626Z,22.60
2018-05-11T21:28:45.207Z,20.03
2018-05-11T21:31:17.710Z,20.10
2018-05-11T21:33:52.897Z,24.70
2018-05-11T21:36:25.290Z,24.57
2018-05-11T21:38:57.672Z,19.03
2018-05-11T21:41:30.120Z,20.70
2018-05-11T21:44:02.549Z,22.23
2018-05-11T21:46:42.343Z,28.67
2018-05-11T21:49:15.518Z,21.93
2018-05-11T21:51:53.871Z,19.70
2018-05-11T21:54:26.545Z,18.93
2018-05-11T21:57:01.186Z,21.30
2018-05-11T21:59:33.749Z,19.90
2018-05-11T22:02:06.819Z,20.53
2018-05-11T22:04:39.385Z,20.80
2018-05-11T22:07:11.927Z,22.40
2018-05-11T22:09:44.357Z,22.20
2018-05-11T22:12:16.717Z,26.20
2018-05-11T22:14:51.582Z,19.50
2018-05-11T22:17:24.197Z,23.23
2018-05-11T22:19:58.749Z,21.30
2018-05-11T22:22:31.279Z,23.40
2018-05-11T22:25:04.694Z,22.80
2018-05-11T22:27:44.762Z,24.07
2018-05-11T22:30:19.193Z,26.60
2018-05-11T22:32:51.720Z,28.90
2018-05-11T22:35:33.058Z,27.40
2018-05-11T22:38:30.480Z,25.07
2018-05-11T22:41:18.232Z,28.23
2018-05-11T22:43:51.993Z,22.40
2018-05-11T22:46:35.581Z,30.00
2018-05-11T22:49:25.378Z,24.93
2018-05-11T22:51:58.166Z,23.00
2018-05-11T22:54:31.657Z,23.30
2018-05-11T22:57:08.223Z,24.67
2018-05-11T22:59:41.440Z,22.97
2018-05-11T23:02:13.943Z,23.87
2018-05-11T23:04:46.414Z,24.77
2018-05-11T23:07:43.231Z,25.70
2018-05-11T23:10:19.885Z,28.23
2018-05-11T23:12:53.573Z,30.47
2018-05-11T23:15:26.162Z,25.77
2018-05-11T23:17:59.345Z,23.73
2018-05-11T23:20:32.549Z,23.23
2018-05-11T23:23:04.977Z,24.10
2018-05-11T23:25:38.178Z,27.17
2018-05-11T23:28:10.572Z,32.40
2018-05-11T23:30:42.970Z,29.17
2018-05-11T23:33:15.331Z,29.60
2018-05-11T23:35:50.379Z,28.57
2018-05-11T23:38:22.934Z,28.43
2018-05-11T23:40:56.197Z,23.73
2018-05-11T23:43:28.571Z,24.10
2018-05-11T23:46:00.965Z,21.87
2018-05-11T23:48:33.392Z,22.50
2018-05-11T23:51:05.825Z,27.47
2018-05-11T23:53:39.312Z,25.97
2018-05-11T23:56:15.953Z,22.73
2018-05-11T23:58:48.308Z,23.60
